sensor_id;sensor_type;location;lat;lon;timestamp;temperature;humidity
38582;DHT22;24349;53.720;10.014;2022-12-29T00:01:29;8.20;99.90
38582;DHT22;24349;53.720;10.014;2022-12-29T00:03:54;8.20;99.90
38582;DHT22;24349;53.720;10.014;2022-12-29T00:06:20;8.20;99.90
38582;DHT22;24349;53.720;10.014;2022-12-29T00:08:45;8.30;99.90
38582;DHT22;24349;53.720;10.014;2022-12-29T00:11:18;8.30;99.90
38582;DHT22;24349;53.720;10.014;2022-12-29T00:13:44;8.30;99.90
38582;DHT22;24349;53.720;10.014;2022-12-29T00:16:28;8.30;99.90
38582;DHT22;24349;53.720;10.014;2022-12-29T00:18:54;8.40;99.90
38582;DHT22;24349;53.720;10.014;2022-12-29T00:21:21;8.40;99.90
38582;DHT22;24349;53.720;10.014;2022-12-29T00:24:05;8.40;99.90
38582;DHT22;24349;53.720;10.014;2022-12-29T00:26:34;8.40;99.90
38582;DHT22;24349;53.720;10.014;2022-12-29T00:29:18;8.50;99.90
38582;DHT22;24349;53.720;10.014;2022-12-29T00:32:03;8.50;99.90
38582;DHT22;24349;53.720;10.014;2022-12-29T00:34:47;8.50;99.90
38582;DHT22;24349;53.720;10.014;2022-12-29T00:37:31;8.60;99.90
38582;DHT22;24349;53.720;10.014;2022-12-29T00:40:16;8.60;99.90
38582;DHT22;24349;53.720;10.014;2022-12-29T00:43:00;8.60;99.90
38582;DHT22;24349;53.720;10.014;2022-12-29T00:45:44;8.60;99.90
38582;DHT22;24349;53.720;10.014;2022-12-29T00:48:10;8.60;99.90
38582;DHT22;24349;53.720;10.014;2022-12-29T00:50:35;8.60;99.90
38582;DHT22;24349;53.720;10.014;2022-12-29T00:53:01;8.60;99.90
38582;DHT22;24349;53.720;10.014;2022-12-29T00:55:26;8.70;99.90
38582;DHT22;24349;53.720;10.014;2022-12-29T00:57:52;8.70;99.90
38582;DHT22;24349;53.720;10.014;2022-12-29T01:00:17;8.70;99.90
38582;DHT22;24349;53.720;10.014;2022-12-29T01:02:43;8.80;99.90
38582;DHT22;24349;53.720;10.014;2022-12-29T01:05:08;8.80;99.90
38582;DHT22;24349;53.720;10.014;2022-12-29T01:07:34;8.80;99.90
38582;DHT22;24349;53.720;10.014;2022-12-29T01:09:59;8.80;99.90
38582;DHT22;24349;53.720;10.014;2022-12-29T01:12:37;8.80;99.90
38582;DHT22;24349;53.720;10.014;2022-12-29T01:15:06;8.80;99.90
38582;DHT22;24349;53.720;10.014;2022-12-29T01:17:31;8.80;99.90
38582;DHT22;24349;53.720;10.014;2022-12-29T01:19:57;8.90;99.90
38582;DHT22;24349;53.720;10.014;2022-12-29T01:22:22;8.90;99.90
38582;DHT22;24349;53.720;10.014;2022-12-29T01:24:48;8.80;99.90
38582;DHT22;24349;53.720;10.014;2022-12-29T01:27:14;8.90;99.90
38582;DHT22;24349;53.720;10.014;2022-12-29T01:29:39;8.90;99.90
38582;DHT22;24349;53.720;10.014;2022-12-29T01:32:05;8.90;99.90
38582;DHT22;24349;53.720;10.014;2022-12-29T01:34:30;8.90;99.90
38582;DHT22;24349;53.720;10.014;2022-12-29T01:36:56;9.00;99.90
38582;DHT22;24349;53.720;10.014;2022-12-29T01:39:21;9.00;99.90
38582;DHT22;24349;53.720;10.014;2022-12-29T01:41:47;9.00;99.90
38582;DHT22;24349;53.720;10.014;2022-12-29T01:46:56;9.00;99.90
38582;DHT22;24349;53.720;10.014;2022-12-29T01:49:23;9.00;99.90
38582;DHT22;24349;53.720;10.014;2022-12-29T01:51:59;9.00;99.90
38582;DHT22;24349;53.720;10.014;2022-12-29T01:54:59;9.00;99.90
38582;DHT22;24349;53.720;10.014;2022-12-29T01:57:20;9.00;99.90
38582;DHT22;24349;53.720;10.014;2022-12-29T01:59:48;9.10;99.90
38582;DHT22;24349;53.720;10.014;2022-12-29T02:02:15;9.10;99.90
38582;DHT22;24349;53.720;10.014;2022-12-29T02:04:41;9.10;99.90
38582;DHT22;24349;53.720;10.014;2022-12-29T02:07:14;9.10;99.90
38582;DHT22;24349;53.720;10.014;2022-12-29T02:09:42;9.10;99.90
38582;DHT22;24349;53.720;10.014;2022-12-29T02:12:07;9.10;99.90
38582;DHT22;24349;53.720;10.014;2022-12-29T02:14:33;9.10;99.90
38582;DHT22;24349;53.720;10.014;2022-12-29T02:22:10;9.20;99.90
38582;DHT22;24349;53.720;10.014;2022-12-29T02:30:12;9.30;99.90
38582;DHT22;24349;53.720;10.014;2022-12-29T02:35:19;9.30;99.90
38582;DHT22;24349;53.720;10.014;2022-12-29T02:40:39;9.30;99.90
38582;DHT22;24349;53.720;10.014;2022-12-29T02:45:55;9.40;99.90
38582;DHT22;24349;53.720;10.014;2022-12-29T02:53:18;9.50;99.90
38582;DHT22;24349;53.720;10.014;2022-12-29T02:56:07;9.40;99.90
38582;DHT22;24349;53.720;10.014;2022-12-29T02:58:33;9.50;99.90
38582;DHT22;24349;53.720;10.014;2022-12-29T03:08:58;9.60;99.90
38582;DHT22;24349;53.720;10.014;2022-12-29T03:11:27;9.60;99.90
38582;DHT22;24349;53.720;10.014;2022-12-29T03:16:59;9.70;99.90
38582;DHT22;24349;53.720;10.014;2022-12-29T03:19:28;9.70;99.90
38582;DHT22;24349;53.720;10.014;2022-12-29T03:22:08;9.70;99.90
38582;DHT22;24349;53.720;10.014;2022-12-29T03:24:58;9.70;99.90
38582;DHT22;24349;53.720;10.014;2022-12-29T03:27:26;9.70;99.90
38582;DHT22;24349;53.720;10.014;2022-12-29T03:29:54;9.80;99.90
38582;DHT22;24349;53.720;10.014;2022-12-29T03:32:24;9.70;99.90
38582;DHT22;24349;53.720;10.014;2022-12-29T03:34:51;9.80;99.90
38582;DHT22;24349;53.720;10.014;2022-12-29T03:37:20;9.70;99.90
38582;DHT22;24349;53.720;10.014;2022-12-29T03:39:47;9.70;99.90
38582;DHT22;24349;53.720;10.014;2022-12-29T03:42:14;9.60;99.90
38582;DHT22;24349;53.720;10.014;2022-12-29T03:44:42;9.60;99.90
38582;DHT22;24349;53.720;10.014;2022-12-29T03:47:09;9.60;99.90
38582;DHT22;24349;53.720;10.014;2022-12-29T03:49:35;9.60;99.90
38582;DHT22;24349;53.720;10.014;2022-12-29T03:52:01;9.60;99.90
38582;DHT22;24349;53.720;10.014;2022-12-29T03:54:26;9.60;99.90
38582;DHT22;24349;53.720;10.014;2022-12-29T03:56:52;9.70;99.90
38582;DHT22;24349;53.720;10.014;2022-12-29T03:59:17;9.60;99.90
38582;DHT22;24349;53.720;10.014;2022-12-29T04:01:43;9.60;99.90
38582;DHT22;24349;53.720;10.014;2022-12-29T04:04:08;9.70;99.90
38582;DHT22;24349;53.720;10.014;2022-12-29T04:06:33;9.80;99.90
38582;DHT22;24349;53.720;10.014;2022-12-29T04:08:59;9.70;99.90
38582;DHT22;24349;53.720;10.014;2022-12-29T04:11:25;9.80;99.90
38582;DHT22;24349;53.720;10.014;2022-12-29T04:13:50;9.80;99.90
38582;DHT22;24349;53.720;10.014;2022-12-29T04:16:16;9.80;99.90
38582;DHT22;24349;53.720;10.014;2022-12-29T04:18:41;9.80;99.90
38582;DHT22;24349;53.720;10.014;2022-12-29T04:21:06;9.90;99.90
38582;DHT22;24349;53.720;10.014;2022-12-29T04:23:33;9.90;99.90
38582;DHT22;24349;53.720;10.014;2022-12-29T04:25:59;9.90;99.90
38582;DHT22;24349;53.720;10.014;2022-12-29T04:28:24;9.90;99.90
38582;DHT22;24349;53.720;10.014;2022-12-29T04:30:50;9.80;99.90
38582;DHT22;24349;53.720;10.014;2022-12-29T04:33:16;9.90;99.90
38582;DHT22;24349;53.720;10.014;2022-12-29T04:35:42;9.90;99.90
38582;DHT22;24349;53.720;10.014;2022-12-29T04:38:08;10.00;99.90
38582;DHT22;24349;53.720;10.014;2022-12-29T04:40:33;10.00;99.90
38582;DHT22;24349;53.720;10.014;2022-12-29T04:42:59;10.00;99.90
38582;DHT22;24349;53.720;10.014;2022-12-29T04:45:24;9.90;99.90
38582;DHT22;24349;53.720;10.014;2022-12-29T04:47:50;9.90;99.90
38582;DHT22;24349;53.720;10.014;2022-12-29T04:50:15;9.80;99.90
38582;DHT22;24349;53.720;10.014;2022-12-29T04:52:41;9.80;99.90
38582;DHT22;24349;53.720;10.014;2022-12-29T04:55:07;9.80;99.90
38582;DHT22;24349;53.720;10.014;2022-12-29T04:57:32;9.80;99.90
38582;DHT22;24349;53.720;10.014;2022-12-29T04:59:58;9.90;99.90
38582;DHT22;24349;53.720;10.014;2022-12-29T05:02:23;9.90;99.90
38582;DHT22;24349;53.720;10.014;2022-12-29T05:04:49;9.90;99.90
38582;DHT22;24349;53.720;10.014;2022-12-29T05:07:14;9.90;99.90
38582;DHT22;24349;53.720;10.014;2022-12-29T05:09:40;9.80;99.90
38582;DHT22;24349;53.720;10.014;2022-12-29T05:12:06;9.80;99.90
38582;DHT22;24349;53.720;10.014;2022-12-29T05:14:32;9.80;99.90
38582;DHT22;24349;53.720;10.014;2022-12-29T05:16:57;9.80;99.90
38582;DHT22;24349;53.720;10.014;2022-12-29T05:19:23;9.80;99.90
38582;DHT22;24349;53.720;10.014;2022-12-29T05:21:48;9.80;99.90
38582;DHT22;24349;53.720;10.014;2022-12-29T05:24:14;9.80;99.90
38582;DHT22;24349;53.720;10.014;2022-12-29T05:26:40;9.80;99.90
38582;DHT22;24349;53.720;10.014;2022-12-29T05:29:06;9.80;99.90
38582;DHT22;24349;53.720;10.014;2022-12-29T05:31:31;9.90;99.90
38582;DHT22;24349;53.720;10.014;2022-12-29T05:33:57;9.80;99.90
38582;DHT22;24349;53.720;10.014;2022-12-29T05:36:22;10.00;99.90
38582;DHT22;24349;53.720;10.014;2022-12-29T05:38:48;10.00;99.90
38582;DHT22;24349;53.720;10.014;2022-12-29T05:41:14;10.00;99.90
38582;DHT22;24349;53.720;10.014;2022-12-29T05:43:39;10.00;99.90
38582;DHT22;24349;53.720;10.014;2022-12-29T05:46:04;10.10;99.90
38582;DHT22;24349;53.720;10.014;2022-12-29T05:48:30;10.10;99.90
38582;DHT22;24349;53.720;10.014;2022-12-29T05:50:55;10.10;99.90
38582;DHT22;24349;53.720;10.014;2022-12-29T05:53:21;10.10;99.90
38582;DHT22;24349;53.720;10.014;2022-12-29T05:55:47;10.00;99.90
38582;DHT22;24349;53.720;10.014;2022-12-29T05:58:13;10.10;99.90
38582;DHT22;24349;53.720;10.014;2022-12-29T06:00:38;10.10;99.90
38582;DHT22;24349;53.720;10.014;2022-12-29T06:03:04;10.10;99.90
38582;DHT22;24349;53.720;10.014;2022-12-29T06:05:29;10.20;99.90
38582;DHT22;24349;53.720;10.014;2022-12-29T06:07:55;10.10;99.90
38582;DHT22;24349;53.720;10.014;2022-12-29T06:10:20;10.20;99.90
38582;DHT22;24349;53.720;10.014;2022-12-29T06:12:46;10.20;99.90
38582;DHT22;24349;53.720;10.014;2022-12-29T06:15:12;10.20;99.90
38582;DHT22;24349;53.720;10.014;2022-12-29T06:17:38;10.30;99.90
38582;DHT22;24349;53.720;10.014;2022-12-29T06:20:03;10.30;99.90
38582;DHT22;24349;53.720;10.014;2022-12-29T06:22:29;10.30;99.90
38582;DHT22;24349;53.720;10.014;2022-12-29T06:24:54;10.30;99.90
38582;DHT22;24349;53.720;10.014;2022-12-29T06:27:20;10.30;99.90
38582;DHT22;24349;53.720;10.014;2022-12-29T06:29:45;10.30;99.90
38582;DHT22;24349;53.720;10.014;2022-12-29T06:32:11;10.30;99.90
38582;DHT22;24349;53.720;10.014;2022-12-29T06:34:36;10.40;99.90
38582;DHT22;24349;53.720;10.014;2022-12-29T06:37:02;10.40;99.90
38582;DHT22;24349;53.720;10.014;2022-12-29T06:39:28;10.40;99.90
38582;DHT22;24349;53.720;10.014;2022-12-29T06:41:53;10.40;99.90
38582;DHT22;24349;53.720;10.014;2022-12-29T06:44:22;10.40;99.90
38582;DHT22;24349;53.720;10.014;2022-12-29T06:46:49;10.40;99.90
38582;DHT22;24349;53.720;10.014;2022-12-29T06:49:15;10.40;99.90
38582;DHT22;24349;53.720;10.014;2022-12-29T06:51:40;10.40;99.90
38582;DHT22;24349;53.720;10.014;2022-12-29T06:54:06;10.40;99.90
38582;DHT22;24349;53.720;10.014;2022-12-29T06:56:31;10.40;99.90
38582;DHT22;24349;53.720;10.014;2022-12-29T06:58:57;10.40;99.90
38582;DHT22;24349;53.720;10.014;2022-12-29T07:01:25;10.40;99.90
38582;DHT22;24349;53.720;10.014;2022-12-29T07:03:50;10.30;99.90
38582;DHT22;24349;53.720;10.014;2022-12-29T07:06:16;10.30;99.90
38582;DHT22;24349;53.720;10.014;2022-12-29T07:08:41;10.30;99.90
38582;DHT22;24349;53.720;10.014;2022-12-29T07:11:07;10.30;99.90
38582;DHT22;24349;53.720;10.014;2022-12-29T07:13:33;10.20;99.90
38582;DHT22;24349;53.720;10.014;2022-12-29T07:15:59;10.20;99.90
38582;DHT22;24349;53.720;10.014;2022-12-29T07:18:25;10.10;99.90
38582;DHT22;24349;53.720;10.014;2022-12-29T07:20:50;10.10;99.90
38582;DHT22;24349;53.720;10.014;2022-12-29T07:23:16;10.10;99.90
38582;DHT22;24349;53.720;10.014;2022-12-29T07:25:41;10.10;99.90
38582;DHT22;24349;53.720;10.014;2022-12-29T07:28:07;10.00;99.90
38582;DHT22;24349;53.720;10.014;2022-12-29T07:30:33;10.00;99.90
38582;DHT22;24349;53.720;10.014;2022-12-29T07:32:58;10.00;99.90
38582;DHT22;24349;53.720;10.014;2022-12-29T07:35:23;10.00;99.90
38582;DHT22;24349;53.720;10.014;2022-12-29T07:37:49;10.00;99.90
38582;DHT22;24349;53.720;10.014;2022-12-29T07:40:15;10.00;99.90
38582;DHT22;24349;53.720;10.014;2022-12-29T07:42:41;10.10;99.90
38582;DHT22;24349;53.720;10.014;2022-12-29T07:45:06;10.20;99.90
38582;DHT22;24349;53.720;10.014;2022-12-29T07:47:32;10.20;99.90
38582;DHT22;24349;53.720;10.014;2022-12-29T07:49:57;10.20;99.90
38582;DHT22;24349;53.720;10.014;2022-12-29T07:52:23;10.30;99.90
38582;DHT22;24349;53.720;10.014;2022-12-29T07:54:48;10.20;99.90
38582;DHT22;24349;53.720;10.014;2022-12-29T07:57:14;10.30;99.90
38582;DHT22;24349;53.720;10.014;2022-12-29T07:59:39;10.30;99.90
38582;DHT22;24349;53.720;10.014;2022-12-29T08:02:05;10.20;99.90
38582;DHT22;24349;53.720;10.014;2022-12-29T08:04:31;10.30;99.90
38582;DHT22;24349;53.720;10.014;2022-12-29T08:06:56;10.20;99.90
38582;DHT22;24349;53.720;10.014;2022-12-29T08:09:22;10.20;99.90
38582;DHT22;24349;53.720;10.014;2022-12-29T08:11:47;10.20;99.90
38582;DHT22;24349;53.720;10.014;2022-12-29T08:14:13;10.20;99.90
38582;DHT22;24349;53.720;10.014;2022-12-29T08:16:38;10.30;99.90
38582;DHT22;24349;53.720;10.014;2022-12-29T08:19:04;10.30;99.90
38582;DHT22;24349;53.720;10.014;2022-12-29T08:21:30;10.30;99.90
38582;DHT22;24349;53.720;10.014;2022-12-29T08:23:55;10.20;99.90
38582;DHT22;24349;53.720;10.014;2022-12-29T08:26:21;10.30;99.90
38582;DHT22;24349;53.720;10.014;2022-12-29T08:28:47;10.20;99.90
38582;DHT22;24349;53.720;10.014;2022-12-29T08:31:12;10.20;99.90
38582;DHT22;24349;53.720;10.014;2022-12-29T08:33:37;10.20;99.90
38582;DHT22;24349;53.720;10.014;2022-12-29T08:36:04;10.20;99.90
38582;DHT22;24349;53.720;10.014;2022-12-29T08:38:30;10.30;99.90
38582;DHT22;24349;53.720;10.014;2022-12-29T08:40:56;10.50;99.90
38582;DHT22;24349;53.720;10.014;2022-12-29T08:43:22;10.50;99.90
38582;DHT22;24349;53.720;10.014;2022-12-29T08:45:47;10.70;99.90
38582;DHT22;24349;53.720;10.014;2022-12-29T08:48:13;10.70;99.90
38582;DHT22;24349;53.720;10.014;2022-12-29T08:50:38;10.60;99.90
38582;DHT22;24349;53.720;10.014;2022-12-29T08:53:04;10.50;99.90
38582;DHT22;24349;53.720;10.014;2022-12-29T08:55:29;10.40;99.90
38582;DHT22;24349;53.720;10.014;2022-12-29T08:57:55;10.40;99.90
38582;DHT22;24349;53.720;10.014;2022-12-29T09:00:20;10.40;99.90
38582;DHT22;24349;53.720;10.014;2022-12-29T09:02:46;10.40;99.90
38582;DHT22;24349;53.720;10.014;2022-12-29T09:05:12;10.40;99.90
38582;DHT22;24349;53.720;10.014;2022-12-29T09:07:37;10.40;99.90
38582;DHT22;24349;53.720;10.014;2022-12-29T09:10:03;10.30;99.90
38582;DHT22;24349;53.720;10.014;2022-12-29T09:12:29;10.40;99.90
38582;DHT22;24349;53.720;10.014;2022-12-29T09:14:54;10.40;99.90
38582;DHT22;24349;53.720;10.014;2022-12-29T09:17:20;10.50;99.90
38582;DHT22;24349;53.720;10.014;2022-12-29T09:20:04;10.50;99.90
38582;DHT22;24349;53.720;10.014;2022-12-29T09:22:30;10.50;99.90
38582;DHT22;24349;53.720;10.014;2022-12-29T09:24:55;10.70;99.90
38582;DHT22;24349;53.720;10.014;2022-12-29T09:27:21;10.60;99.90
38582;DHT22;24349;53.720;10.014;2022-12-29T09:29:46;10.50;99.90
38582;DHT22;24349;53.720;10.014;2022-12-29T09:32:12;10.50;99.90
38582;DHT22;24349;53.720;10.014;2022-12-29T09:34:37;10.50;99.90
38582;DHT22;24349;53.720;10.014;2022-12-29T09:37:03;11.00;99.90
38582;DHT22;24349;53.720;10.014;2022-12-29T09:39:28;11.00;99.90
38582;DHT22;24349;53.720;10.014;2022-12-29T09:47:17;11.00;99.90
38582;DHT22;24349;53.720;10.014;2022-12-29T09:49:44;11.10;99.90
38582;DHT22;24349;53.720;10.014;2022-12-29T09:52:13;11.50;99.90
38582;DHT22;24349;53.720;10.014;2022-12-29T09:57:31;11.00;99.90
38582;DHT22;24349;53.720;10.014;2022-12-29T09:59:55;10.90;99.90
38582;DHT22;24349;53.720;10.014;2022-12-29T10:02:38;10.90;99.90
38582;DHT22;24349;53.720;10.014;2022-12-29T10:08:00;10.70;99.90
38582;DHT22;24349;53.720;10.014;2022-12-29T10:10:40;10.70;99.90
38582;DHT22;24349;53.720;10.014;2022-12-29T10:23:40;10.50;99.90
38582;DHT22;24349;53.720;10.014;2022-12-29T10:26:09;10.70;99.90
38582;DHT22;24349;53.720;10.014;2022-12-29T10:28:44;10.90;99.90
38582;DHT22;24349;53.720;10.014;2022-12-29T10:31:13;11.50;99.90
38582;DHT22;24349;53.720;10.014;2022-12-29T10:33:42;11.60;99.90
38582;DHT22;24349;53.720;10.014;2022-12-29T10:36:10;11.70;99.90
38582;DHT22;24349;53.720;10.014;2022-12-29T10:38:43;11.80;99.90
38582;DHT22;24349;53.720;10.014;2022-12-29T10:41:13;12.40;99.90
38582;DHT22;24349;53.720;10.014;2022-12-29T10:43:44;12.20;99.90
38582;DHT22;24349;53.720;10.014;2022-12-29T10:46:12;12.00;99.90
38582;DHT22;24349;53.720;10.014;2022-12-29T10:48:39;12.60;99.90
38582;DHT22;24349;53.720;10.014;2022-12-29T10:51:05;12.60;99.90
38582;DHT22;24349;53.720;10.014;2022-12-29T10:53:48;12.70;99.90
38582;DHT22;24349;53.720;10.014;2022-12-29T10:56:49;13.10;99.90
38582;DHT22;24349;53.720;10.014;2022-12-29T10:59:16;12.70;99.90
38582;DHT22;24349;53.720;10.014;2022-12-29T11:01:56;13.30;99.90
38582;DHT22;24349;53.720;10.014;2022-12-29T11:06:48;13.20;99.90
38582;DHT22;24349;53.720;10.014;2022-12-29T11:09:15;12.70;99.90
38582;DHT22;24349;53.720;10.014;2022-12-29T11:11:41;13.30;99.90
38582;DHT22;24349;53.720;10.014;2022-12-29T11:14:11;13.30;99.90
38582;DHT22;24349;53.720;10.014;2022-12-29T11:16:38;13.20;99.90
38582;DHT22;24349;53.720;10.014;2022-12-29T11:19:04;12.80;99.90
38582;DHT22;24349;53.720;10.014;2022-12-29T11:23:56;13.10;99.90
38582;DHT22;24349;53.720;10.014;2022-12-29T11:26:23;12.50;99.90
38582;DHT22;24349;53.720;10.014;2022-12-29T11:29:36;12.30;99.90
38582;DHT22;24349;53.720;10.014;2022-12-29T11:31:41;12.50;99.90
38582;DHT22;24349;53.720;10.014;2022-12-29T11:34:07;12.40;99.90
38582;DHT22;24349;53.720;10.014;2022-12-29T11:36:33;12.20;99.90
38582;DHT22;24349;53.720;10.014;2022-12-29T11:38:59;12.10;99.90
38582;DHT22;24349;53.720;10.014;2022-12-29T11:41:26;11.70;99.90
38582;DHT22;24349;53.720;10.014;2022-12-29T11:43:52;11.60;99.90
38582;DHT22;24349;53.720;10.014;2022-12-29T11:46:20;11.40;99.90
38582;DHT22;24349;53.720;10.014;2022-12-29T11:48:48;11.60;99.90
38582;DHT22;24349;53.720;10.014;2022-12-29T11:51:20;11.80;99.90
38582;DHT22;24349;53.720;10.014;2022-12-29T11:53:47;11.80;99.90
38582;DHT22;24349;53.720;10.014;2022-12-29T11:56:16;11.60;99.90
38582;DHT22;24349;53.720;10.014;2022-12-29T11:58:42;11.30;99.90
38582;DHT22;24349;53.720;10.014;2022-12-29T12:01:15;11.20;99.90
38582;DHT22;24349;53.720;10.014;2022-12-29T12:03:52;11.00;99.90
38582;DHT22;24349;53.720;10.014;2022-12-29T12:06:21;10.90;99.90
38582;DHT22;24349;53.720;10.014;2022-12-29T12:08:56;10.90;99.90
38582;DHT22;24349;53.720;10.014;2022-12-29T12:16:41;10.80;99.90
38582;DHT22;24349;53.720;10.014;2022-12-29T12:21:41;10.70;99.90
38582;DHT22;24349;53.720;10.014;2022-12-29T12:29:19;10.70;99.90
38582;DHT22;24349;53.720;10.014;2022-12-29T12:31:54;10.70;99.90
38582;DHT22;24349;53.720;10.014;2022-12-29T12:34:27;10.70;99.90
38582;DHT22;24349;53.720;10.014;2022-12-29T12:39:26;10.60;99.90
38582;DHT22;24349;53.720;10.014;2022-12-29T12:57:42;10.50;99.90
38582;DHT22;24349;53.720;10.014;2022-12-29T13:05:32;10.40;99.90
38582;DHT22;24349;53.720;10.014;2022-12-29T13:13:16;10.40;99.90
38582;DHT22;24349;53.720;10.014;2022-12-29T13:18:27;10.40;99.90
38582;DHT22;24349;53.720;10.014;2022-12-29T13:21:02;10.40;99.90
38582;DHT22;24349;53.720;10.014;2022-12-29T13:23:31;10.30;99.90
38582;DHT22;24349;53.720;10.014;2022-12-29T13:26:02;10.40;99.90
38582;DHT22;24349;53.720;10.014;2022-12-29T13:28:32;10.30;99.90
38582;DHT22;24349;53.720;10.014;2022-12-29T13:31:01;10.40;99.90
38582;DHT22;24349;53.720;10.014;2022-12-29T13:36:09;10.40;99.90
38582;DHT22;24349;53.720;10.014;2022-12-29T13:38:42;10.30;99.90
38582;DHT22;24349;53.720;10.014;2022-12-29T13:41:11;10.20;99.90
38582;DHT22;24349;53.720;10.014;2022-12-29T13:43:39;10.20;99.90
38582;DHT22;24349;53.720;10.014;2022-12-29T13:46:15;10.10;99.90
38582;DHT22;24349;53.720;10.014;2022-12-29T13:48:45;9.90;99.90
38582;DHT22;24349;53.720;10.014;2022-12-29T13:51:12;9.60;99.90
38582;DHT22;24349;53.720;10.014;2022-12-29T13:56:07;9.30;99.90
38582;DHT22;24349;53.720;10.014;2022-12-29T14:01:08;9.10;99.90
38582;DHT22;24349;53.720;10.014;2022-12-29T14:06:23;9.10;99.90
38582;DHT22;24349;53.720;10.014;2022-12-29T14:08:50;9.10;99.90
38582;DHT22;24349;53.720;10.014;2022-12-29T14:11:17;9.00;99.90
38582;DHT22;24349;53.720;10.014;2022-12-29T14:13:44;9.00;99.90
38582;DHT22;24349;53.720;10.014;2022-12-29T14:16:21;9.00;99.90
38582;DHT22;24349;53.720;10.014;2022-12-29T14:18:49;9.00;99.90
38582;DHT22;24349;53.720;10.014;2022-12-29T14:23:41;8.80;99.90
38582;DHT22;24349;53.720;10.014;2022-12-29T14:28:41;8.70;99.90
38582;DHT22;24349;53.720;10.014;2022-12-29T14:39:00;8.40;99.90
38582;DHT22;24349;53.720;10.014;2022-12-29T14:41:27;8.40;99.90
38582;DHT22;24349;53.720;10.014;2022-12-29T14:43:58;8.40;99.90
38582;DHT22;24349;53.720;10.014;2022-12-29T14:46:25;8.40;99.90
38582;DHT22;24349;53.720;10.014;2022-12-29T14:48:55;8.40;99.90
38582;DHT22;24349;53.720;10.014;2022-12-29T14:51:31;8.40;99.90
38582;DHT22;24349;53.720;10.014;2022-12-29T14:53:57;8.30;99.90
38582;DHT22;24349;53.720;10.014;2022-12-29T14:56:27;8.30;99.90
38582;DHT22;24349;53.720;10.014;2022-12-29T14:58:54;8.30;99.90
38582;DHT22;24349;53.720;10.014;2022-12-29T15:03:50;8.30;99.90
38582;DHT22;24349;53.720;10.014;2022-12-29T15:06:17;8.30;99.90
38582;DHT22;24349;53.720;10.014;2022-12-29T15:11:56;8.30;99.90
38582;DHT22;24349;53.720;10.014;2022-12-29T15:14:01;8.30;99.90
38582;DHT22;24349;53.720;10.014;2022-12-29T15:16:30;8.30;99.90
38582;DHT22;24349;53.720;10.014;2022-12-29T15:18:57;8.30;99.90
38582;DHT22;24349;53.720;10.014;2022-12-29T15:21:26;8.30;99.90
38582;DHT22;24349;53.720;10.014;2022-12-29T15:23:52;8.30;99.90
38582;DHT22;24349;53.720;10.014;2022-12-29T15:26:18;8.30;99.90
38582;DHT22;24349;53.720;10.014;2022-12-29T15:28:52;8.40;99.90
38582;DHT22;24349;53.720;10.014;2022-12-29T15:31:19;8.40;99.90
38582;DHT22;24349;53.720;10.014;2022-12-29T15:33:46;8.40;99.90
38582;DHT22;24349;53.720;10.014;2022-12-29T15:36:20;8.30;99.90
38582;DHT22;24349;53.720;10.014;2022-12-29T15:38:45;8.30;99.90
38582;DHT22;24349;53.720;10.014;2022-12-29T15:43:59;8.30;99.90
38582;DHT22;24349;53.720;10.014;2022-12-29T15:46:26;8.40;99.90
38582;DHT22;24349;53.720;10.014;2022-12-29T15:48:52;8.40;99.90
38582;DHT22;24349;53.720;10.014;2022-12-29T15:51:19;8.40;99.90
38582;DHT22;24349;53.720;10.014;2022-12-29T15:53:48;8.50;99.90
38582;DHT22;24349;53.720;10.014;2022-12-29T15:56:15;8.50;99.90
38582;DHT22;24349;53.720;10.014;2022-12-29T15:58:42;8.50;99.90
38582;DHT22;24349;53.720;10.014;2022-12-29T16:01:16;8.40;99.90
38582;DHT22;24349;53.720;10.014;2022-12-29T16:03:42;8.40;99.90
38582;DHT22;24349;53.720;10.014;2022-12-29T16:06:09;8.40;99.90
38582;DHT22;24349;53.720;10.014;2022-12-29T16:08:36;8.30;99.90
38582;DHT22;24349;53.720;10.014;2022-12-29T16:11:05;8.30;99.90
38582;DHT22;24349;53.720;10.014;2022-12-29T16:13:33;8.30;99.90
38582;DHT22;24349;53.720;10.014;2022-12-29T16:16:03;8.30;99.90
38582;DHT22;24349;53.720;10.014;2022-12-29T16:18:34;8.20;99.90
38582;DHT22;24349;53.720;10.014;2022-12-29T16:21:00;8.20;99.90
38582;DHT22;24349;53.720;10.014;2022-12-29T16:23:27;8.20;99.90
38582;DHT22;24349;53.720;10.014;2022-12-29T16:25:53;8.10;99.90
38582;DHT22;24349;53.720;10.014;2022-12-29T16:28:21;8.10;99.90
38582;DHT22;24349;53.720;10.014;2022-12-29T16:30:56;8.00;99.90
38582;DHT22;24349;53.720;10.014;2022-12-29T16:36:30;8.00;99.90
38582;DHT22;24349;53.720;10.014;2022-12-29T16:41:40;8.00;99.90
38582;DHT22;24349;53.720;10.014;2022-12-29T16:44:18;7.90;99.90
38582;DHT22;24349;53.720;10.014;2022-12-29T16:47:04;8.00;99.90
38582;DHT22;24349;53.720;10.014;2022-12-29T16:49:33;7.90;99.90
38582;DHT22;24349;53.720;10.014;2022-12-29T16:51:59;7.90;99.90
38582;DHT22;24349;53.720;10.014;2022-12-29T16:54:28;7.80;99.90
38582;DHT22;24349;53.720;10.014;2022-12-29T16:56:55;7.80;99.90
38582;DHT22;24349;53.720;10.014;2022-12-29T17:01:49;7.80;99.90
38582;DHT22;24349;53.720;10.014;2022-12-29T17:04:15;7.80;99.90
38582;DHT22;24349;53.720;10.014;2022-12-29T17:06:40;7.70;99.90
38582;DHT22;24349;53.720;10.014;2022-12-29T17:09:16;7.70;99.90
38582;DHT22;24349;53.720;10.014;2022-12-29T17:11:42;7.70;99.90
38582;DHT22;24349;53.720;10.014;2022-12-29T17:14:27;7.70;99.90
38582;DHT22;24349;53.720;10.014;2022-12-29T17:16:54;7.70;99.90
38582;DHT22;24349;53.720;10.014;2022-12-29T17:19:20;7.70;99.90
38582;DHT22;24349;53.720;10.014;2022-12-29T17:21:47;7.70;99.90
38582;DHT22;24349;53.720;10.014;2022-12-29T17:24:17;7.70;99.90
38582;DHT22;24349;53.720;10.014;2022-12-29T17:26:48;7.70;99.90
38582;DHT22;24349;53.720;10.014;2022-12-29T17:29:18;7.70;99.90
38582;DHT22;24349;53.720;10.014;2022-12-29T17:31:44;7.70;99.90
38582;DHT22;24349;53.720;10.014;2022-12-29T17:34:10;7.70;99.90
38582;DHT22;24349;53.720;10.014;2022-12-29T17:36:36;7.80;99.90
38582;DHT22;24349;53.720;10.014;2022-12-29T17:39:02;7.80;99.90
38582;DHT22;24349;53.720;10.014;2022-12-29T17:41:27;7.80;99.90
38582;DHT22;24349;53.720;10.014;2022-12-29T17:43:53;7.80;99.90
38582;DHT22;24349;53.720;10.014;2022-12-29T17:46:18;7.80;99.90
38582;DHT22;24349;53.720;10.014;2022-12-29T17:48:44;7.90;99.90
38582;DHT22;24349;53.720;10.014;2022-12-29T17:51:10;7.90;99.90
38582;DHT22;24349;53.720;10.014;2022-12-29T17:53:36;7.90;99.90
38582;DHT22;24349;53.720;10.014;2022-12-29T17:56:01;8.00;99.90
38582;DHT22;24349;53.720;10.014;2022-12-29T17:58:27;8.10;99.90